createdAt,value
2018-04-29T00:02:15.137Z,5.23
2018-04-29T00:04:43.468Z,6.67
2018-04-29T00:07:11.751Z,5.47
2018-04-29T00:09:40.080Z,7.43
2018-04-29T00:12:08.409Z,6.80
2018-04-29T00:14:37.456Z,7.60
2018-04-29T00:17:05.781Z,6.10
2018-04-29T00:19:34.060Z,7.40
2018-04-29T00:22:02.390Z,6.80
2018-04-29T00:24:31.485Z,8.57
2018-04-29T00:26:59.857Z,4.77
2018-04-29T00:29:28.188Z,6.70
2018-04-29T00:31:56.522Z,11.63
2018-04-29T00:34:25.126Z,7.20
2018-04-29T00:36:53.401Z,5.30
2018-04-29T00:39:21.680Z,6.10
2018-04-29T00:41:50.088Z,5.97
2018-04-29T00:44:18.420Z,9.33
2018-04-29T00:46:47.513Z,7.10
2018-04-29T00:49:15.797Z,8.50
2018-04-29T00:54:45.147Z,7.50
2018-04-29T00:57:13.472Z,7.13
2018-04-29T00:59:41.757Z,7.63
2018-04-29T01:02:10.801Z,7.83
2018-04-29T01:04:39.134Z,7.93
2018-04-29T01:07:08.184Z,6.70
2018-04-29T01:09:36.508Z,9.73
2018-04-29T01:12:04.788Z,8.47
2018-04-29T01:14:33.117Z,8.23
2018-04-29T01:17:02.172Z,11.23
2018-04-29T01:19:30.456Z,8.80
2018-04-29T01:21:58.800Z,6.13
2018-04-29T01:24:27.897Z,9.70
2018-04-29T01:26:56.229Z,7.57
2018-04-29T01:29:24.560Z,9.93
2018-04-29T01:31:52.852Z,10.37
2018-04-29T01:34:21.192Z,11.30
2018-04-29T01:36:49.520Z,16.17
2018-04-29T01:39:17.802Z,9.93
2018-04-29T01:41:46.136Z,8.93
2018-04-29T01:44:15.188Z,8.00
2018-04-29T01:46:43.524Z,11.20
2018-04-29T01:49:12.576Z,6.20
2018-04-29T01:51:40.866Z,8.67
2018-04-29T01:54:09.189Z,7.70
2018-04-29T01:56:37.469Z,9.50
2018-04-29T01:59:05.805Z,6.57
2018-04-29T02:01:34.857Z,6.33
2018-04-29T02:04:03.145Z,7.27
2018-04-29T02:06:31.550Z,9.20
2018-04-29T02:08:59.941Z,9.27
2018-04-29T02:11:28.273Z,7.27
2018-04-29T02:13:56.565Z,10.07
2018-04-29T02:16:25.784Z,6.47
2018-04-29T02:18:54.121Z,7.87
2018-04-29T02:21:22.452Z,6.93
2018-04-29T02:23:51.064Z,9.30
2018-04-29T02:26:19.344Z,7.63
2018-04-29T02:28:47.633Z,8.63
2018-04-29T02:31:16.005Z,9.57
2018-04-29T02:33:44.258Z,6.30
2018-04-29T02:36:12.600Z,7.70
2018-04-29T02:38:40.889Z,7.07
2018-04-29T02:41:09.220Z,6.50
2018-04-29T02:43:37.513Z,7.47
2018-04-29T02:46:05.913Z,11.60
2018-04-29T02:48:34.200Z,8.60
2018-04-29T02:51:02.545Z,9.10
2018-04-29T02:53:30.838Z,6.97
2018-04-29T02:55:59.121Z,11.83
2018-04-29T02:58:27.445Z,9.60
2018-04-29T03:00:55.787Z,7.97
2018-04-29T03:03:24.873Z,6.63
2018-04-29T03:05:53.161Z,8.87
2018-04-29T03:08:21.497Z,9.23
2018-04-29T03:10:49.972Z,9.03
2018-04-29T03:13:19.135Z,7.87
2018-04-29T03:15:47.417Z,7.70
2018-04-29T03:18:15.756Z,7.50
2018-04-29T03:20:44.933Z,7.87
2018-04-29T03:23:13.222Z,12.07
2018-04-29T03:25:41.517Z,9.57
2018-04-29T03:28:09.856Z,8.40
2018-04-29T03:30:38.201Z,7.23
2018-04-29T03:33:06.545Z,7.73
2018-04-29T03:35:34.833Z,7.40
2018-04-29T03:38:03.169Z,6.70
2018-04-29T03:40:31.473Z,8.57
2018-04-29T03:43:00.601Z,9.73
2018-04-29T03:45:28.885Z,7.17
2018-04-29T03:47:57.193Z,8.03
2018-04-29T03:50:25.533Z,8.83
2018-04-29T03:52:55.335Z,9.67
2018-04-29T03:55:23.677Z,8.30
2018-04-29T03:58:04.781Z,8.20
2018-04-29T04:00:55.620Z,7.57
2018-04-29T04:03:35.816Z,8.50
2018-04-29T04:06:04.169Z,7.00
2018-04-29T04:08:32.456Z,7.90
2018-04-29T04:11:00.749Z,10.80
2018-04-29T04:13:29.173Z,10.10
2018-04-29T04:15:57.572Z,9.60
2018-04-29T04:18:25.913Z,8.30
2018-04-29T04:20:54.252Z,8.00
2018-04-29T04:23:22.545Z,9.00
2018-04-29T04:25:50.889Z,9.90
2018-04-29T04:28:19.532Z,6.20
2018-04-29T04:30:47.821Z,7.43
2018-04-29T04:33:16.106Z,8.13
2018-04-29T04:35:44.504Z,8.30
2018-04-29T04:38:12.889Z,7.83
2018-04-29T04:40:41.224Z,6.47
2018-04-29T04:43:09.513Z,9.63
2018-04-29T04:45:37.869Z,9.87
2018-04-29T04:48:06.149Z,8.30
2018-04-29T04:50:34.865Z,9.40
2018-04-29T04:53:03.140Z,8.20
2018-04-29T04:55:31.432Z,6.60
2018-04-29T04:57:59.769Z,6.03
2018-04-29T05:00:28.049Z,8.03
2018-04-29T05:02:56.389Z,6.87
2018-04-29T05:05:24.784Z,7.30
2018-04-29T05:07:54.644Z,6.33
2018-04-29T05:10:23.700Z,6.37
2018-04-29T05:12:52.002Z,9.23
2018-04-29T05:15:20.329Z,7.87
2018-04-29T05:17:49.506Z,6.80
2018-04-29T05:20:17.793Z,8.10
2018-04-29T05:22:46.136Z,10.70
2018-04-29T05:25:14.429Z,10.60
2018-04-29T05:27:42.783Z,7.77
2018-04-29T05:30:11.116Z,7.03
2018-04-29T05:32:39.472Z,8.53
2018-04-29T05:35:07.752Z,6.77
2018-04-29T05:37:36.085Z,6.47
2018-04-29T05:40:04.377Z,13.17
2018-04-29T05:42:32.798Z,7.63
2018-04-29T05:45:01.073Z,9.70
2018-04-29T05:47:29.351Z,8.43
2018-04-29T05:49:57.725Z,7.63
2018-04-29T05:52:26.789Z,10.27
2018-04-29T05:54:55.377Z,11.13
2018-04-29T05:57:23.661Z,6.60
2018-04-29T05:59:51.956Z,7.33
2018-04-29T06:02:20.289Z,9.57
2018-04-29T06:04:49.342Z,10.70
2018-04-29T06:07:17.697Z,7.33
2018-04-29T06:09:45.969Z,6.03
2018-04-29T06:12:15.077Z,12.50
2018-04-29T06:14:44.125Z,6.57
2018-04-29T06:17:12.533Z,6.23
2018-04-29T06:19:40.823Z,6.20
2018-04-29T06:22:09.101Z,6.97
2018-04-29T06:24:37.487Z,6.50
2018-04-29T06:27:06.501Z,10.87
2018-04-29T06:29:34.837Z,6.87
2018-04-29T06:32:03.914Z,7.77
2018-04-29T06:34:32.301Z,5.80
2018-04-29T06:37:00.581Z,7.87
2018-04-29T06:39:28.864Z,8.63
2018-04-29T06:41:57.365Z,9.77
2018-04-29T06:44:25.640Z,8.00
2018-04-29T06:46:54.013Z,8.00
2018-04-29T06:49:22.648Z,7.73
2018-04-29T06:51:50.941Z,11.30
2018-04-29T06:54:19.540Z,8.07
2018-04-29T06:56:47.929Z,6.07
2018-04-29T06:59:16.281Z,5.93
2018-04-29T07:01:44.625Z,7.40
2018-04-29T07:04:12.957Z,8.83
2018-04-29T07:06:41.293Z,7.00
2018-04-29T07:09:09.573Z,6.57
2018-04-29T07:11:37.917Z,7.13
2018-04-29T07:14:06.321Z,9.53
2018-04-29T07:16:34.645Z,6.93
2018-04-29T07:19:02.989Z,6.90
2018-04-29T07:21:31.279Z,7.03
2018-04-29T07:23:59.612Z,6.57
2018-04-29T07:26:27.896Z,11.90
2018-04-29T07:28:56.229Z,6.70
2018-04-29T07:31:25.285Z,14.37
2018-04-29T07:33:53.641Z,6.00
2018-04-29T07:36:21.930Z,9.57
2018-04-29T07:38:51.041Z,9.37
2018-04-29T07:41:19.400Z,13.27
2018-04-29T07:43:47.676Z,9.43
2018-04-29T07:46:17.497Z,6.73
2018-04-29T07:48:45.835Z,14.57
2018-04-29T07:51:14.277Z,7.43
2018-04-29T07:53:42.609Z,9.90
2018-04-29T07:56:11.662Z,5.67
2018-04-29T07:58:39.941Z,4.90
2018-04-29T08:01:08.276Z,8.57
2018-04-29T08:03:37.669Z,6.70
2018-04-29T08:06:05.952Z,7.27
2018-04-29T08:08:34.232Z,8.43
2018-04-29T08:11:02.841Z,6.67
2018-04-29T08:13:31.121Z,8.60
2018-04-29T08:15:59.401Z,6.73
2018-04-29T08:18:27.738Z,7.70
2018-04-29T08:20:56.792Z,10.00
2018-04-29T08:23:25.121Z,8.20
2018-04-29T08:25:53.404Z,5.43
2018-04-29T08:28:21.787Z,6.93
2018-04-29T08:30:50.282Z,6.70
2018-04-29T08:33:18.561Z,8.93
2018-04-29T08:35:46.842Z,7.97
2018-04-29T08:38:15.249Z,9.03
2018-04-29T08:40:43.953Z,8.67
2018-04-29T08:43:13.809Z,8.73
2018-04-29T08:45:42.045Z,8.50
2018-04-29T08:48:10.380Z,6.20
2018-04-29T08:50:39.053Z,8.73
2018-04-29T08:53:07.444Z,7.30
2018-04-29T08:55:35.725Z,5.17
2018-04-29T08:58:04.058Z,4.00
2018-04-29T09:00:33.113Z,7.20
2018-04-29T09:03:01.445Z,4.70
2018-04-29T09:05:30.532Z,2.93
2018-04-29T09:08:00.652Z,3.50
2018-04-29T09:10:28.939Z,5.70
2018-04-29T09:12:57.221Z,4.30
2018-04-29T09:15:25.561Z,4.00
2018-04-29T09:17:54.944Z,4.40
2018-04-29T09:20:23.252Z,5.20
2018-04-29T09:22:51.532Z,3.87
2018-04-29T09:25:20.112Z,4.77
2018-04-29T09:27:48.397Z,10.27
2018-04-29T09:30:16.692Z,5.63
2018-04-29T09:32:45.028Z,3.90
2018-04-29T09:35:13.379Z,3.80
2018-04-29T09:37:41.738Z,6.83
2018-04-29T09:40:10.029Z,4.47
2018-04-29T09:42:38.373Z,7.03
2018-04-29T09:45:07.420Z,5.63
2018-04-29T09:47:36.041Z,2.43
2018-04-29T09:50:04.329Z,3.80
2018-04-29T09:52:32.605Z,6.50
2018-04-29T09:55:00.937Z,3.40
2018-04-29T09:57:29.985Z,4.40
2018-04-29T09:59:58.317Z,5.07
2018-04-29T10:02:26.665Z,4.77
2018-04-29T10:04:55.033Z,5.33
2018-04-29T10:07:24.409Z,3.60
2018-04-29T10:09:52.693Z,4.10
2018-04-29T10:12:20.975Z,4.20
2018-04-29T10:14:49.312Z,6.47
2018-04-29T10:17:18.361Z,6.00
2018-04-29T10:19:46.776Z,2.83
2018-04-29T10:22:15.109Z,4.33
2018-04-29T10:24:43.463Z,7.20
2018-04-29T10:27:11.795Z,10.07
2018-04-29T10:29:40.238Z,4.07
2018-04-29T10:32:08.529Z,5.23
2018-04-29T10:34:36.863Z,3.80
2018-04-29T10:37:05.297Z,5.10
2018-04-29T10:39:33.644Z,5.07
2018-04-29T10:42:01.928Z,6.70
2018-04-29T10:44:30.377Z,8.87
2018-04-29T10:46:58.773Z,6.60
2018-04-29T10:49:27.900Z,6.53
2018-04-29T10:51:56.957Z,4.03
2018-04-29T10:54:25.580Z,2.40
2018-04-29T10:56:53.866Z,3.50
2018-04-29T10:59:22.144Z,3.60
2018-04-29T11:01:51.685Z,5.73
2018-04-29T11:04:20.032Z,3.70
2018-04-29T11:06:48.266Z,3.20
2018-04-29T11:09:16.645Z,2.40
2018-04-29T11:11:44.993Z,5.93
2018-04-29T11:14:13.332Z,2.70
2018-04-29T11:16:41.613Z,3.40
2018-04-29T11:19:10.633Z,6.93
2018-04-29T11:21:39.017Z,2.60
2018-04-29T11:24:07.350Z,3.30
2018-04-29T11:26:35.684Z,2.57
2018-04-29T11:29:03.960Z,3.40
2018-04-29T11:31:32.249Z,2.57
2018-04-29T11:34:00.657Z,9.50
2018-04-29T11:36:29.250Z,5.93
2018-04-29T11:38:57.533Z,6.13
2018-04-29T11:41:25.813Z,3.43
2018-04-29T11:43:54.149Z,6.80
2018-04-29T11:46:23.210Z,10.00
2018-04-29T11:48:51.621Z,8.20
2018-04-29T11:51:20.008Z,2.60
2018-04-29T11:53:48.281Z,4.53
2018-04-29T11:56:16.635Z,3.57
2018-04-29T11:58:45.693Z,6.20
2018-04-29T12:01:14.021Z,3.20
2018-04-29T12:03:43.211Z,4.70
2018-04-29T12:06:11.489Z,3.70
2018-04-29T12:08:40.190Z,5.93
2018-04-29T12:11:08.472Z,1.77
2018-04-29T12:13:36.757Z,4.83
2018-04-29T12:16:05.092Z,5.43
2018-04-29T12:18:34.138Z,4.83
2018-04-29T12:21:02.423Z,3.40
2018-04-29T12:23:30.753Z,4.10
2018-04-29T12:25:59.036Z,3.43
2018-04-29T12:28:27.365Z,5.30
2018-04-29T12:30:55.708Z,2.67
2018-04-29T12:33:24.932Z,3.57
2018-04-29T12:35:54.721Z,6.33
2018-04-29T12:38:23.137Z,4.50
2018-04-29T12:40:51.732Z,9.50
2018-04-29T12:43:20.120Z,6.20
2018-04-29T12:45:48.401Z,5.30
2018-04-29T12:48:16.733Z,4.40
2018-04-29T12:50:45.784Z,3.27
2018-04-29T12:53:14.065Z,7.43
2018-04-29T12:55:42.698Z,3.67
2018-04-29T12:58:10.979Z,2.27
2018-04-29T13:00:39.257Z,3.67
2018-04-29T13:03:07.604Z,7.30
2018-04-29T13:05:36.700Z,3.80
2018-04-29T13:08:05.041Z,3.43
2018-04-29T13:10:33.365Z,3.60
2018-04-29T13:13:03.165Z,3.23
2018-04-29T13:15:31.496Z,2.63
2018-04-29T13:18:00.926Z,2.13
2018-04-29T13:20:29.204Z,5.30
2018-04-29T13:22:57.485Z,4.93
2018-04-29T13:25:25.838Z,2.13
2018-04-29T13:27:54.909Z,2.30
2018-04-29T13:30:23.196Z,2.13
2018-04-29T13:32:51.545Z,3.23
2018-04-29T13:35:19.882Z,2.97
2018-04-29T13:37:48.218Z,3.93
2018-04-29T13:40:16.565Z,6.37
2018-04-29T13:42:44.844Z,3.10
2018-04-29T13:45:13.241Z,2.37
2018-04-29T13:47:41.521Z,2.90
2018-04-29T13:50:10.121Z,3.60
2018-04-29T13:52:38.416Z,3.03
2018-04-29T13:55:06.697Z,3.83
2018-04-29T13:57:35.300Z,1.93
2018-04-29T14:00:03.578Z,2.50
2018-04-29T14:02:31.886Z,2.93
2018-04-29T14:05:00.285Z,3.40
2018-04-29T14:07:28.657Z,4.83
2018-04-29T14:09:56.946Z,2.80
2018-04-29T14:12:25.284Z,3.90
2018-04-29T14:14:53.564Z,1.80
2018-04-29T14:17:22.612Z,4.23
2018-04-29T14:19:50.974Z,2.23
2018-04-29T14:22:20.094Z,4.77
2018-04-29T14:24:48.349Z,2.73
2018-04-29T14:27:17.522Z,1.70
2018-04-29T14:29:45.926Z,2.23
2018-04-29T14:32:14.321Z,5.23
2018-04-29T14:34:42.705Z,4.80
2018-04-29T14:37:12.030Z,2.20
2018-04-29T14:39:41.820Z,3.53
2018-04-29T14:42:10.148Z,2.30
2018-04-29T14:44:38.432Z,1.60
2018-04-29T14:47:06.760Z,3.00
2018-04-29T14:49:35.501Z,1.80
2018-04-29T14:52:03.798Z,2.73
2018-04-29T14:54:32.081Z,2.40
2018-04-29T14:57:00.685Z,3.60
2018-04-29T14:59:29.073Z,1.57
2018-04-29T15:01:57.361Z,3.50
2018-04-29T15:04:25.711Z,4.37
2018-04-29T15:06:54.042Z,3.37
2018-04-29T15:09:22.337Z,1.60
2018-04-29T15:11:50.669Z,3.80
2018-04-29T15:14:18.953Z,3.53
2018-04-29T15:16:48.124Z,3.33
2018-04-29T15:19:16.409Z,2.13
2018-04-29T15:21:44.689Z,1.60
2018-04-29T15:24:13.404Z,2.90
2018-04-29T15:26:41.802Z,3.50
2018-04-29T15:29:10.081Z,8.97
2018-04-29T15:31:38.456Z,2.20
2018-04-29T15:34:06.793Z,2.47
2018-04-29T15:36:35.840Z,2.17
2018-04-29T15:39:04.469Z,3.93
2018-04-29T15:41:32.757Z,1.63
2018-04-29T15:44:01.052Z,2.13
2018-04-29T15:46:29.429Z,2.60
2018-04-29T15:48:57.680Z,1.70
2018-04-29T15:51:27.715Z,3.97
2018-04-29T15:53:57.125Z,1.70
2018-04-29T15:56:26.505Z,2.30
2018-04-29T15:58:54.839Z,1.70
2018-04-29T16:01:24.312Z,2.97
2018-04-29T16:03:52.992Z,2.30
2018-04-29T16:06:21.382Z,3.20
2018-04-29T16:08:50.171Z,3.27
2018-04-29T16:11:19.757Z,4.40
2018-04-29T16:13:49.561Z,1.93
2018-04-29T16:16:18.831Z,2.60
2018-04-29T16:18:47.237Z,4.10
2018-04-29T16:21:16.444Z,2.90
2018-04-29T16:23:44.728Z,3.33
2018-04-29T16:26:13.061Z,2.27
2018-04-29T16:28:42.114Z,1.83
2018-04-29T16:31:10.441Z,2.30
2018-04-29T16:33:39.573Z,5.37
2018-04-29T16:36:07.909Z,4.63
2018-04-29T16:38:36.605Z,4.30
2018-04-29T16:41:04.936Z,2.07
2018-04-29T16:43:34.101Z,6.07
2018-04-29T16:46:03.107Z,4.87
2018-04-29T16:48:31.507Z,4.77
2018-04-29T16:51:00.108Z,2.33
2018-04-29T16:53:28.422Z,3.50
2018-04-29T16:55:57.481Z,6.80
2018-04-29T16:58:26.325Z,3.40
2018-04-29T17:00:54.893Z,2.30
2018-04-29T17:03:23.783Z,4.73
2018-04-29T17:05:52.439Z,1.90
2018-04-29T17:08:22.441Z,4.27
2018-04-29T17:10:51.030Z,2.30
2018-04-29T17:13:19.313Z,4.73
2018-04-29T17:15:48.336Z,4.60
2018-04-29T17:18:16.720Z,2.23
2018-04-29T17:20:45.023Z,5.33
2018-04-29T17:23:13.396Z,4.33
2018-04-29T17:25:41.730Z,4.33
2018-04-29T17:28:10.065Z,3.07
2018-04-29T17:30:38.376Z,3.07
2018-04-29T17:33:06.652Z,4.13
2018-04-29T17:35:35.050Z,4.97
2018-04-29T17:38:03.491Z,3.63
2018-04-29T17:40:32.557Z,4.47
2018-04-29T17:43:00.837Z,3.30
2018-04-29T17:45:29.522Z,2.43
2018-04-29T17:47:59.054Z,7.30
2018-04-29T17:50:27.338Z,4.53
2018-04-29T17:52:55.673Z,16.60
2018-04-29T17:55:24.026Z,5.20
2018-04-29T17:57:52.366Z,2.60
2018-04-29T18:00:20.649Z,3.13
2018-04-29T18:02:48.985Z,4.00
2018-04-29T18:05:17.321Z,4.50
2018-04-29T18:07:46.172Z,2.90
2018-04-29T18:10:14.509Z,4.30
2018-04-29T18:12:43.756Z,4.47
2018-04-29T18:15:12.080Z,3.80
2018-04-29T18:17:40.376Z,4.90
2018-04-29T18:20:08.708Z,10.03
2018-04-29T18:22:36.997Z,3.93
2018-04-29T18:25:05.283Z,3.23
2018-04-29T18:27:33.623Z,6.07
2018-04-29T18:30:01.906Z,2.80
2018-04-29T18:32:30.186Z,2.03
2018-04-29T18:34:58.524Z,5.03
2018-04-29T18:37:26.816Z,3.50
2018-04-29T18:39:55.908Z,4.80
2018-04-29T18:42:24.956Z,2.27
2018-04-29T18:44:53.293Z,3.37
2018-04-29T18:47:21.572Z,3.30
2018-04-29T18:49:51.365Z,4.23
2018-04-29T18:52:19.781Z,2.53
2018-04-29T18:54:48.383Z,5.10
2018-04-29T18:57:17.081Z,3.60
2018-04-29T18:59:45.470Z,4.43
2018-04-29T19:02:13.749Z,3.20
2018-04-29T19:04:42.081Z,3.40
2018-04-29T19:07:11.461Z,3.00
2018-04-29T19:09:39.857Z,2.17
2018-04-29T19:12:09.683Z,3.73
2018-04-29T19:14:38.013Z,3.63
2018-04-29T19:17:07.080Z,6.30
2018-04-29T19:19:35.464Z,2.80
2018-04-29T19:22:03.752Z,4.17
2018-04-29T19:24:32.089Z,4.70
2018-04-29T19:27:00.428Z,8.67
2018-04-29T19:29:28.729Z,5.70
2018-04-29T19:31:57.122Z,3.43
2018-04-29T19:34:25.445Z,4.70
2018-04-29T19:36:54.537Z,2.97
2018-04-29T19:39:23.633Z,6.10
2018-04-29T19:41:53.476Z,3.73
2018-04-29T19:44:22.525Z,4.40
2018-04-29T19:46:51.148Z,3.70
2018-04-29T19:49:19.445Z,2.90
2018-04-29T19:51:49.232Z,4.90
2018-04-29T19:54:17.564Z,3.13
2018-04-29T19:56:46.617Z,4.17
2018-04-29T19:59:15.054Z,3.30
2018-04-29T20:01:43.337Z,6.37
2018-04-29T20:04:11.623Z,3.27
2018-04-29T20:06:40.234Z,8.07
2018-04-29T20:09:08.513Z,6.07
2018-04-29T20:11:36.937Z,4.57
2018-04-29T20:14:05.154Z,4.43
2018-04-29T20:16:33.597Z,3.77
2018-04-29T20:19:01.925Z,4.73
2018-04-29T20:21:30.260Z,9.00
2018-04-29T20:23:58.556Z,4.77
2018-04-29T20:26:27.156Z,6.63
2018-04-29T20:28:55.437Z,7.53
2018-04-29T20:31:23.736Z,4.90
2018-04-29T20:33:52.120Z,10.70
2018-04-29T20:36:20.406Z,8.27
2018-04-29T20:38:48.808Z,5.30
2018-04-29T20:41:17.101Z,4.70
2018-04-29T20:43:45.694Z,5.37
2018-04-29T20:46:13.995Z,6.27
2018-04-29T20:48:43.061Z,4.20
2018-04-29T20:51:11.485Z,7.80
2018-04-29T20:53:40.528Z,7.43
2018-04-29T20:56:09.181Z,8.33
2018-04-29T20:58:37.577Z,8.20
2018-04-29T21:01:05.878Z,8.97
2018-04-29T21:03:34.213Z,5.33
2018-04-29T21:06:02.548Z,7.67
2018-04-29T21:08:30.880Z,6.13
2018-04-29T21:10:59.221Z,5.50
2018-04-29T21:13:27.552Z,5.53
2018-04-29T21:15:56.607Z,5.30
2018-04-29T21:18:24.884Z,5.37
2018-04-29T21:20:53.208Z,5.00
2018-04-29T21:23:21.538Z,7.17
2018-04-29T21:25:49.816Z,5.00
2018-04-29T21:28:18.924Z,5.70
2018-04-29T21:30:47.972Z,9.43
2018-04-29T21:33:16.252Z,6.10
2018-04-29T21:35:44.589Z,5.03
2018-04-29T21:38:12.875Z,9.53
2018-04-29T21:40:41.204Z,6.20
2018-04-29T21:43:09.660Z,5.97
2018-04-29T21:45:37.989Z,5.73
2018-04-29T21:48:06.271Z,5.77
2018-04-29T21:50:34.608Z,10.83
2018-04-29T21:53:02.896Z,6.50
2018-04-29T21:55:31.293Z,6.43
2018-04-29T21:57:59.627Z,7.30
2018-04-29T22:00:27.913Z,6.83
2018-04-29T22:02:56.235Z,8.90
2018-04-29T22:05:24.649Z,6.63
2018-04-29T22:07:52.929Z,6.33
2018-04-29T22:10:21.328Z,6.40
2018-04-29T22:12:49.625Z,7.53
2018-04-29T22:15:17.961Z,6.27
2018-04-29T22:17:46.240Z,10.70
2018-04-29T22:20:14.900Z,7.10
2018-04-29T22:22:43.184Z,8.60
2018-04-29T22:25:11.469Z,7.50
2018-04-29T22:27:39.798Z,6.37
2018-04-29T22:30:08.873Z,7.23
2018-04-29T22:32:37.211Z,10.10
2018-04-29T22:35:05.488Z,6.77
2018-04-29T22:37:34.607Z,10.30
2018-04-29T22:40:03.029Z,8.57
2018-04-29T22:42:31.308Z,7.30
2018-04-29T22:44:59.605Z,8.30
2018-04-29T22:47:28.223Z,9.50
2018-04-29T22:49:56.509Z,7.50
2018-04-29T22:52:24.793Z,6.80
2018-04-29T22:54:53.193Z,8.47
2018-04-29T22:57:21.475Z,9.40
2018-04-29T22:59:49.801Z,8.07
2018-04-29T23:02:18.848Z,9.47
2018-04-29T23:04:47.129Z,9.33
2018-04-29T23:07:15.460Z,7.63
2018-04-29T23:09:43.849Z,8.60
2018-04-29T23:12:12.190Z,10.63
2018-04-29T23:14:41.241Z,10.00
2018-04-29T23:17:09.526Z,9.83
2018-04-29T23:19:37.933Z,11.93
2018-04-29T23:22:06.217Z,10.13
2018-04-29T23:24:34.826Z,7.57
2018-04-29T23:27:03.108Z,7.87
2018-04-29T23:29:31.397Z,8.07
2018-04-29T23:31:59.725Z,7.87
2018-04-29T23:34:28.815Z,7.57
2018-04-29T23:36:57.902Z,9.63
2018-04-29T23:39:26.241Z,11.97
2018-04-29T23:41:54.521Z,7.60
2018-04-29T23:44:22.869Z,7.80
2018-04-29T23:46:51.196Z,8.33
2018-04-29T23:49:20.569Z,11.10
2018-04-29T23:51:48.967Z,8.77
2018-04-29T23:54:17.246Z,9.50
2018-04-29T23:56:45.572Z,9.47
2018-04-29T23:59:14.625Z,8.60
